createdAt,value
2023-03-08T00:01:57.564Z,71.80
2023-03-08T00:04:24.328Z,71.48
2023-03-08T00:06:50.944Z,71.23
2023-03-08T00:09:17.495Z,70.14
2023-03-08T00:11:44.033Z,70.48
2023-03-08T00:14:10.611Z,69.86
2023-03-08T00:16:37.088Z,69.69
2023-03-08T00:19:03.656Z,69.86
2023-03-08T00:21:30.151Z,70.35
2023-03-08T00:23:56.673Z,70.96
2023-03-08T00:26:23.416Z,71.71
2023-03-08T00:28:50.457Z,72.72
2023-03-08T00:31:17.186Z,72.75
2023-03-08T00:33:43.737Z,73.24
2023-03-08T00:36:14.945Z,73.61
2023-03-08T00:38:42.013Z,73.75
2023-03-08T00:41:08.865Z,74.33
2023-03-08T00:43:35.950Z,73.78
2023-03-08T00:46:02.587Z,73.53
2023-03-08T00:48:29.117Z,74.38
2023-03-08T00:50:55.634Z,73.88
2023-03-08T00:53:22.153Z,73.85
2023-03-08T00:55:59.098Z,74.09
2023-03-08T00:58:27.748Z,74.33
2023-03-08T01:00:54.776Z,73.38
2023-03-08T01:03:24.391Z,73.64
2023-03-08T01:05:53.826Z,74.33
2023-03-08T01:08:22.583Z,73.61
2023-03-08T01:10:56.885Z,73.83
2023-03-08T01:13:25.846Z,74.20
2023-03-08T01:15:52.644Z,74.65
2023-03-08T01:18:19.416Z,74.95
2023-03-08T01:20:54.467Z,76.10
2023-03-08T01:23:20.943Z,75.82
2023-03-08T01:25:47.406Z,76.30
2023-03-08T01:28:13.887Z,77.19
2023-03-08T01:30:40.398Z,77.81
2023-03-08T01:33:06.910Z,77.46
2023-03-08T01:35:33.431Z,79.01
2023-03-08T01:37:59.967Z,78.85
2023-03-08T01:40:26.406Z,79.34
2023-03-08T01:42:52.940Z,79.57
2023-03-08T01:45:56.942Z,80.46
2023-03-08T01:48:30.293Z,79.59
2023-03-08T01:50:57.784Z,79.88
2023-03-08T01:53:25.532Z,80.52
2023-03-08T01:55:52.555Z,80.50
2023-03-08T01:58:19.073Z,80.82
2023-03-08T02:00:45.606Z,80.83
2023-03-08T02:03:12.177Z,80.62
2023-03-08T02:05:43.343Z,81.51
2023-03-08T02:08:10.184Z,81.32
2023-03-08T02:10:38.014Z,81.29
2023-03-08T02:13:06.546Z,80.89
2023-03-08T02:15:33.187Z,80.53
2023-03-08T02:17:59.759Z,80.53
2023-03-08T02:20:30.862Z,81.36
2023-03-08T02:23:09.062Z,80.84
2023-03-08T02:25:35.559Z,79.74
2023-03-08T02:28:03.049Z,79.07
2023-03-08T02:30:35.881Z,77.89
2023-03-08T02:33:02.588Z,78.02
2023-03-08T02:35:29.815Z,77.78
2023-03-08T02:37:56.568Z,78.46
2023-03-08T02:40:23.106Z,78.50
2023-03-08T02:42:51.201Z,79.10
2023-03-08T02:45:19.448Z,79.67
2023-03-08T02:47:45.931Z,78.95
2023-03-08T02:50:12.418Z,78.72
2023-03-08T02:52:38.897Z,80.20
2023-03-08T02:55:05.921Z,79.75
2023-03-08T02:57:32.397Z,79.40
2023-03-08T02:59:58.904Z,80.73
2023-03-08T03:02:25.421Z,80.32
2023-03-08T03:04:51.927Z,80.88
2023-03-08T03:07:18.397Z,80.15
2023-03-08T03:09:44.879Z,80.04
2023-03-08T03:12:11.338Z,79.82
2023-03-08T03:14:37.819Z,79.41
2023-03-08T03:17:04.329Z,79.68
2023-03-08T03:19:31.099Z,80.23
2023-03-08T03:21:57.589Z,79.90
2023-03-08T03:24:24.120Z,80.59
2023-03-08T03:26:51.673Z,80.79
2023-03-08T03:29:18.274Z,80.04
2023-03-08T03:31:44.933Z,80.14
2023-03-08T03:34:11.510Z,80.34
2023-03-08T03:36:38.003Z,80.89
2023-03-08T03:39:04.666Z,80.39
2023-03-08T03:41:31.292Z,82.13
2023-03-08T03:43:58.982Z,80.60
2023-03-08T03:46:25.489Z,82.09
2023-03-08T03:48:52.102Z,83.34
2023-03-08T03:51:20.801Z,82.45
2023-03-08T03:53:48.728Z,83.60
2023-03-08T03:56:23.421Z,85.18
2023-03-08T03:58:50.882Z,84.45
2023-03-08T04:01:24.609Z,85.31
2023-03-08T04:03:52.769Z,85.63
2023-03-08T04:06:22.254Z,89.25
2023-03-08T04:08:49.650Z,88.83
2023-03-08T04:11:19.164Z,87.54
2023-03-08T04:13:46.191Z,90.86
2023-03-08T04:16:30.580Z,91.02
2023-03-08T04:19:02.878Z,92.12
2023-03-08T04:21:29.654Z,90.86
2023-03-08T04:23:59.445Z,89.17
2023-03-08T04:26:26.981Z,90.17
2023-03-08T04:28:53.542Z,89.32
2023-03-08T04:31:28.485Z,91.24
2023-03-08T04:33:55.614Z,94.04
2023-03-08T04:36:22.838Z,92.94
2023-03-08T04:38:50.246Z,94.93
2023-03-08T04:41:17.166Z,95.13
2023-03-08T04:43:50.941Z,93.42
2023-03-08T04:46:19.599Z,92.98
2023-03-08T04:48:46.812Z,94.92
2023-03-08T04:51:15.097Z,97.06
2023-03-08T04:53:44.557Z,96.02
2023-03-08T04:56:12.150Z,96.58
2023-03-08T04:58:39.048Z,95.93
2023-03-08T05:01:14.246Z,99.97
2023-03-08T05:03:41.552Z,98.50
2023-03-08T05:06:08.623Z,99.26
2023-03-08T05:08:35.673Z,97.79
2023-03-08T05:11:02.854Z,97.10
2023-03-08T05:13:32.277Z,98.30
2023-03-08T05:15:59.245Z,100.00
2023-03-08T05:18:26.289Z,99.62
2023-03-08T05:20:57.749Z,98.80
2023-03-08T05:23:28.488Z,97.18
2023-03-08T05:25:57.972Z,98.06
2023-03-08T05:28:26.141Z,100.00
2023-03-08T05:31:11.750Z,97.89
2023-03-08T05:33:39.213Z,97.97
2023-03-08T05:36:07.037Z,100.00
2023-03-08T05:38:34.066Z,99.50
2023-03-08T05:41:02.170Z,100.00
2023-03-08T05:43:28.869Z,100.00
2023-03-08T05:46:02.270Z,98.89
2023-03-08T05:48:30.717Z,100.00
2023-03-08T05:50:57.880Z,100.00
2023-03-08T05:53:24.705Z,100.00
2023-03-08T05:55:51.292Z,100.00
2023-03-08T05:58:17.812Z,98.85
2023-03-08T06:00:44.365Z,98.94
2023-03-08T06:03:10.949Z,98.05
2023-03-08T06:05:37.712Z,98.66
2023-03-08T06:08:04.483Z,99.53
2023-03-08T06:10:31.041Z,97.10
2023-03-08T06:12:57.535Z,93.09
2023-03-08T06:15:24.061Z,94.91
2023-03-08T06:17:53.948Z,91.60
2023-03-08T06:20:20.898Z,94.70
2023-03-08T06:22:47.811Z,95.06
2023-03-08T06:25:14.382Z,94.98
2023-03-08T06:27:41.013Z,94.16
2023-03-08T06:30:07.982Z,94.44
2023-03-08T06:32:35.993Z,93.22
2023-03-08T06:35:02.653Z,90.78
2023-03-08T06:37:33.128Z,88.67
2023-03-08T06:39:59.714Z,86.92
2023-03-08T06:42:40.219Z,85.96
2023-03-08T06:45:08.282Z,85.34
2023-03-08T06:47:34.918Z,85.02
2023-03-08T06:50:01.502Z,84.03
2023-03-08T06:52:28.015Z,85.91
2023-03-08T06:54:54.532Z,86.98
2023-03-08T06:57:20.970Z,85.14
2023-03-08T06:59:47.462Z,85.43
2023-03-08T07:02:13.964Z,86.00
2023-03-08T07:04:40.474Z,85.17
2023-03-08T07:07:07.923Z,84.89
2023-03-08T07:09:34.724Z,83.60
2023-03-08T07:12:01.215Z,84.18
2023-03-08T07:14:27.783Z,84.12
2023-03-08T07:16:54.276Z,83.31
2023-03-08T07:19:20.842Z,84.37
2023-03-08T07:21:47.341Z,84.33
2023-03-08T07:24:13.817Z,83.24
2023-03-08T07:26:40.463Z,81.58
2023-03-08T07:29:08.084Z,79.75
2023-03-08T07:31:36.277Z,77.09
2023-03-08T07:34:05.574Z,75.52
2023-03-08T07:36:33.354Z,72.94
2023-03-08T07:38:59.896Z,72.21
2023-03-08T07:41:30.435Z,71.25
2023-03-08T07:43:56.899Z,71.95
2023-03-08T07:46:23.613Z,70.85
2023-03-08T07:48:55.078Z,71.30
2023-03-08T07:51:23.044Z,69.99
2023-03-08T07:53:51.108Z,70.58
2023-03-08T07:56:17.609Z,71.47
2023-03-08T07:58:44.238Z,71.85
2023-03-08T08:01:12.152Z,72.62
2023-03-08T08:03:39.217Z,71.62
2023-03-08T08:06:06.947Z,72.14
2023-03-08T08:08:33.474Z,73.33
2023-03-08T08:11:00.056Z,74.02
2023-03-08T08:13:26.597Z,73.86
2023-03-08T08:16:00.380Z,73.08
2023-03-08T08:18:27.844Z,74.09
2023-03-08T08:21:06.299Z,74.10
2023-03-08T08:23:33.195Z,73.54
2023-03-08T08:25:59.790Z,72.76
2023-03-08T08:28:27.460Z,72.58
2023-03-08T08:30:59.514Z,72.13
2023-03-08T08:33:27.383Z,70.64
2023-03-08T08:35:54.017Z,70.61
2023-03-08T08:38:20.571Z,69.58
2023-03-08T08:40:47.166Z,69.63
2023-03-08T08:43:14.047Z,69.71
2023-03-08T08:45:48.502Z,67.12
2023-03-08T08:48:15.238Z,66.34
2023-03-08T08:50:42.874Z,67.18
2023-03-08T08:53:10.319Z,65.59
2023-03-08T08:55:36.877Z,64.93
2023-03-08T08:58:04.811Z,62.52
2023-03-08T09:00:33.571Z,62.08
2023-03-08T09:03:04.814Z,61.76
2023-03-08T09:05:31.993Z,60.17
2023-03-08T09:08:00.576Z,58.76
2023-03-08T09:10:29.384Z,58.47
2023-03-08T09:12:57.739Z,55.08
2023-03-08T09:15:25.340Z,54.81
2023-03-08T09:17:51.863Z,54.24
2023-03-08T09:20:19.791Z,52.28
2023-03-08T09:22:47.120Z,53.83
2023-03-08T09:25:14.272Z,55.51
2023-03-08T09:27:42.009Z,56.14
2023-03-08T09:30:14.516Z,56.06
2023-03-08T09:32:41.136Z,55.77
2023-03-08T09:35:10.057Z,53.76
2023-03-08T09:37:36.588Z,52.30
2023-03-08T09:40:09.483Z,49.94
2023-03-08T09:42:38.217Z,52.02
2023-03-08T09:45:17.766Z,50.23
2023-03-08T09:47:51.560Z,50.35
2023-03-08T09:50:33.928Z,49.84
2023-03-08T09:53:10.943Z,48.93
2023-03-08T09:55:46.222Z,48.47
2023-03-08T09:58:31.519Z,47.77
2023-03-08T10:01:06.599Z,48.29
2023-03-08T10:03:54.327Z,46.16
2023-03-08T10:06:34.328Z,45.15
2023-03-08T10:09:26.711Z,44.73
2023-03-08T10:12:03.361Z,43.63
2023-03-08T10:14:36.856Z,43.41
2023-03-08T10:17:12.115Z,42.71
2023-03-08T10:20:01.817Z,44.67
2023-03-08T10:22:34.291Z,43.14
2023-03-08T10:25:22.682Z,44.24
2023-03-08T10:27:52.361Z,44.25
2023-03-08T10:30:22.325Z,44.31
2023-03-08T10:32:56.411Z,45.54
2023-03-08T10:35:53.646Z,46.25
2023-03-08T10:38:20.489Z,47.63
2023-03-08T10:40:47.297Z,47.71
2023-03-08T10:43:39.857Z,48.05
2023-03-08T10:46:12.965Z,47.01
2023-03-08T10:48:39.826Z,46.26
2023-03-08T10:51:21.864Z,46.57
2023-03-08T10:54:04.199Z,46.36
2023-03-08T10:56:38.715Z,47.91
2023-03-08T10:59:07.242Z,47.01
2023-03-08T11:01:47.426Z,48.51
2023-03-08T11:04:16.839Z,47.85
2023-03-08T11:06:43.955Z,48.64
2023-03-08T11:09:31.384Z,47.70
2023-03-08T11:11:59.213Z,48.41
2023-03-08T11:14:27.840Z,49.31
2023-03-08T11:17:21.559Z,49.37
2023-03-08T11:20:18.345Z,50.40
2023-03-08T11:22:58.070Z,50.35
2023-03-08T11:26:00.907Z,51.22
2023-03-08T11:28:45.651Z,51.82
2023-03-08T11:31:13.252Z,51.62
2023-03-08T11:33:51.925Z,51.18
2023-03-08T11:36:53.640Z,50.52
2023-03-08T11:39:32.788Z,50.47
2023-03-08T11:42:25.934Z,49.94
2023-03-08T11:45:11.968Z,50.14
2023-03-08T11:47:53.931Z,50.71
2023-03-08T11:50:29.265Z,51.07
2023-03-08T11:53:17.084Z,50.17
2023-03-08T11:56:05.471Z,49.18
2023-03-08T11:58:52.736Z,48.59
2023-03-08T12:01:24.327Z,48.53
2023-03-08T12:03:55.214Z,49.23
2023-03-08T12:06:30.843Z,49.34
2023-03-08T12:09:05.602Z,49.92
2023-03-08T12:11:38.481Z,49.71
2023-03-08T12:14:18.754Z,49.61
2023-03-08T12:16:59.709Z,49.99
2023-03-08T12:19:39.838Z,49.77
2023-03-08T12:22:28.601Z,50.90
2023-03-08T12:24:58.655Z,50.70
2023-03-08T12:27:40.105Z,50.58
2023-03-08T12:30:28.276Z,50.57
2023-03-08T12:32:56.519Z,50.89
2023-03-08T12:35:23.159Z,51.06
2023-03-08T12:38:15.543Z,51.49
2023-03-08T12:40:48.097Z,51.58
2023-03-08T12:43:27.740Z,49.83
2023-03-08T12:45:57.005Z,50.80
2023-03-08T12:48:37.888Z,51.75
2023-03-08T12:51:19.493Z,51.87
2023-03-08T12:53:55.589Z,51.85
2023-03-08T12:56:35.742Z,52.99
2023-03-08T12:59:04.036Z,53.36
2023-03-08T13:01:40.596Z,53.13
2023-03-08T13:04:41.796Z,53.57
2023-03-08T13:07:22.289Z,53.59
2023-03-08T13:10:15.077Z,53.03
2023-03-08T13:13:05.038Z,52.68
2023-03-08T13:15:31.654Z,53.58
2023-03-08T13:18:11.046Z,52.90
2023-03-08T13:20:41.782Z,52.74
2023-03-08T13:23:22.509Z,53.97
2023-03-08T13:26:07.821Z,53.69
2023-03-08T13:28:47.723Z,53.93
2023-03-08T13:31:20.731Z,53.93
2023-03-08T13:33:53.178Z,54.20
2023-03-08T13:36:33.463Z,54.09
2023-03-08T13:39:04.083Z,55.02
2023-03-08T13:41:34.763Z,54.76
2023-03-08T13:44:04.104Z,55.88
2023-03-08T13:46:31.083Z,55.25
2023-03-08T13:48:57.993Z,55.74
2023-03-08T13:51:27.975Z,55.18
2023-03-08T13:53:55.658Z,55.81
2023-03-08T13:56:26.135Z,55.45
2023-03-08T13:58:56.929Z,54.99
2023-03-08T14:01:25.695Z,55.31
2023-03-08T14:03:55.467Z,55.40
2023-03-08T14:06:30.169Z,55.00
2023-03-08T14:08:59.499Z,55.25
2023-03-08T14:11:34.768Z,55.27
2023-03-08T14:14:04.674Z,54.12
2023-03-08T14:16:34.939Z,54.15
2023-03-08T14:19:32.404Z,52.80
2023-03-08T14:22:01.929Z,50.71
2023-03-08T14:24:31.040Z,50.01
2023-03-08T14:27:05.602Z,50.04
2023-03-08T14:29:36.589Z,51.95
2023-03-08T14:32:06.646Z,52.47
2023-03-08T14:34:36.458Z,52.97
2023-03-08T14:37:08.197Z,54.18
2023-03-08T14:39:36.626Z,54.85
2023-03-08T14:42:24.830Z,55.80
2023-03-08T14:45:04.159Z,55.77
2023-03-08T14:47:40.114Z,56.60
2023-03-08T14:50:09.344Z,56.00
2023-03-08T14:52:44.117Z,56.62
2023-03-08T14:55:32.006Z,56.58
2023-03-08T14:58:03.669Z,56.32
2023-03-08T15:00:31.623Z,56.83
2023-03-08T15:02:59.418Z,56.99
2023-03-08T15:05:29.515Z,56.59
2023-03-08T15:07:57.706Z,56.76
2023-03-08T15:10:36.596Z,56.65
2023-03-08T15:13:04.668Z,56.49
2023-03-08T15:15:31.144Z,56.50
2023-03-08T15:17:57.704Z,57.51
2023-03-08T15:20:25.085Z,56.94
2023-03-08T15:22:56.166Z,57.32
2023-03-08T15:25:34.680Z,57.58
2023-03-08T15:28:01.479Z,58.28
2023-03-08T15:30:30.023Z,58.06
2023-03-08T15:32:59.448Z,58.03
2023-03-08T15:35:26.113Z,58.58
2023-03-08T15:37:52.619Z,59.02
2023-03-08T15:40:23.982Z,59.57
2023-03-08T15:42:50.597Z,59.04
2023-03-08T15:45:17.445Z,59.70
2023-03-08T15:47:44.137Z,59.48
2023-03-08T15:50:16.828Z,60.05
2023-03-08T15:52:44.342Z,60.05
2023-03-08T15:55:12.858Z,60.24
2023-03-08T15:57:40.200Z,61.13
2023-03-08T16:00:09.543Z,61.88
2023-03-08T16:02:36.274Z,61.89
2023-03-08T16:05:04.477Z,62.09
2023-03-08T16:07:31.203Z,63.11
2023-03-08T16:09:57.977Z,63.17
2023-03-08T16:12:24.917Z,63.28
2023-03-08T16:14:54.719Z,63.91
2023-03-08T16:17:21.509Z,64.44
2023-03-08T16:19:48.077Z,63.86
2023-03-08T16:22:14.654Z,65.00
2023-03-08T16:24:41.156Z,65.41
2023-03-08T16:27:07.657Z,65.72
2023-03-08T16:29:34.206Z,67.18
2023-03-08T16:32:01.078Z,67.02
2023-03-08T16:34:28.884Z,66.76
2023-03-08T16:36:56.089Z,67.05
2023-03-08T16:39:23.892Z,67.23
2023-03-08T16:41:50.528Z,67.25
2023-03-08T16:44:26.592Z,67.92
2023-03-08T16:46:53.710Z,68.24
2023-03-08T16:49:22.726Z,68.73
2023-03-08T16:51:51.890Z,69.42
2023-03-08T16:54:18.353Z,70.08
2023-03-08T16:56:44.865Z,70.00
2023-03-08T16:59:13.789Z,69.86
2023-03-08T17:01:42.524Z,70.19
2023-03-08T17:04:10.604Z,70.01
2023-03-08T17:06:37.890Z,69.96
2023-03-08T17:09:05.700Z,70.43
2023-03-08T17:11:34.341Z,71.26
2023-03-08T17:14:06.268Z,72.12
2023-03-08T17:16:33.820Z,72.53
2023-03-08T17:19:01.272Z,72.46
2023-03-08T17:21:28.890Z,73.21
2023-03-08T17:23:55.557Z,73.81
2023-03-08T17:26:23.226Z,74.46
2023-03-08T17:28:51.668Z,74.55
2023-03-08T17:31:21.064Z,75.15
2023-03-08T17:33:48.210Z,74.91
2023-03-08T17:36:15.799Z,76.22
2023-03-08T17:38:42.710Z,76.30
2023-03-08T17:41:14.477Z,77.30
2023-03-08T17:43:41.834Z,75.42
2023-03-08T17:46:12.807Z,75.43
2023-03-08T17:48:39.670Z,75.98
2023-03-08T17:51:08.672Z,75.94
2023-03-08T17:53:35.808Z,76.34
2023-03-08T17:56:06.427Z,76.56
2023-03-08T17:58:33.662Z,76.70
2023-03-08T18:01:14.842Z,76.82
2023-03-08T18:03:41.873Z,76.91
2023-03-08T18:06:18.426Z,76.66
2023-03-08T18:08:45.211Z,76.40
2023-03-08T18:11:11.752Z,75.35
2023-03-08T18:13:40.589Z,75.66
2023-03-08T18:16:07.378Z,76.21
2023-03-08T18:18:34.122Z,75.77
2023-03-08T18:21:12.701Z,75.82
2023-03-08T18:23:41.778Z,75.89
2023-03-08T18:26:10.205Z,75.58
2023-03-08T18:28:36.794Z,75.82
2023-03-08T18:31:12.580Z,76.87
2023-03-08T18:33:39.337Z,76.04
2023-03-08T18:36:06.365Z,76.83
2023-03-08T18:38:33.248Z,77.18
2023-03-08T18:41:00.149Z,77.38
2023-03-08T18:43:26.699Z,77.32
2023-03-08T18:45:55.043Z,77.80
2023-03-08T18:48:23.447Z,80.30
2023-03-08T18:50:50.025Z,82.26
2023-03-08T18:53:16.703Z,89.03
2023-03-08T18:55:56.604Z,89.15
2023-03-08T18:58:24.529Z,95.01
2023-03-08T19:00:56.895Z,94.42
2023-03-08T19:03:23.583Z,97.58
2023-03-08T19:05:50.140Z,96.95
2023-03-08T19:08:16.662Z,98.67
2023-03-08T19:10:43.133Z,98.21
2023-03-08T19:13:09.660Z,99.58
2023-03-08T19:15:38.105Z,100.00
2023-03-08T19:18:06.142Z,100.00
2023-03-08T19:20:37.006Z,100.00
2023-03-08T19:23:03.858Z,100.00
2023-03-08T19:25:55.857Z,100.00
2023-03-08T19:28:23.131Z,100.00
2023-03-08T19:30:49.623Z,100.00
2023-03-08T19:33:29.589Z,100.00
2023-03-08T19:35:57.252Z,100.00
2023-03-08T19:38:23.926Z,100.00
2023-03-08T19:40:50.420Z,100.00
2023-03-08T19:43:16.937Z,100.00
2023-03-08T19:45:48.877Z,100.00
2023-03-08T19:48:15.565Z,100.00
2023-03-08T19:50:46.148Z,100.00
2023-03-08T19:53:12.770Z,100.00
2023-03-08T19:55:51.589Z,100.00
2023-03-08T19:58:18.969Z,100.00
2023-03-08T20:00:46.916Z,100.00
2023-03-08T20:03:15.809Z,100.00
2023-03-08T20:05:44.436Z,100.00
2023-03-08T20:08:12.501Z,100.00
2023-03-08T20:10:39.634Z,100.00
2023-03-08T20:13:06.140Z,100.00
2023-03-08T20:15:32.688Z,100.00
2023-03-08T20:17:59.273Z,100.00
2023-03-08T20:20:25.861Z,100.00
2023-03-08T20:22:52.369Z,100.00
2023-03-08T20:25:18.893Z,100.00
2023-03-08T20:27:45.436Z,100.00
2023-03-08T20:30:12.628Z,100.00
2023-03-08T20:32:39.274Z,100.00
2023-03-08T20:35:06.908Z,100.00
2023-03-08T20:37:33.765Z,100.00
2023-03-08T20:40:02.536Z,100.00
2023-03-08T20:42:31.070Z,100.00
2023-03-08T20:44:57.555Z,100.00
2023-03-08T20:47:24.075Z,100.00
2023-03-08T20:49:50.602Z,100.00
2023-03-08T20:52:17.114Z,100.00
2023-03-08T20:54:43.659Z,100.00
2023-03-08T20:57:10.403Z,100.00
2023-03-08T20:59:36.899Z,100.00
2023-03-08T21:02:03.624Z,100.00
2023-03-08T21:04:30.690Z,100.00
2023-03-08T21:06:57.385Z,100.00
2023-03-08T21:09:23.867Z,100.00
2023-03-08T21:11:50.382Z,100.00
2023-03-08T21:14:16.903Z,100.00
2023-03-08T21:16:43.532Z,100.00
2023-03-08T21:19:10.304Z,100.00
2023-03-08T21:21:42.089Z,100.00
2023-03-08T21:24:13.894Z,100.00
2023-03-08T21:26:40.644Z,100.00
2023-03-08T21:29:09.317Z,100.00
2023-03-08T21:31:39.484Z,100.00
2023-03-08T21:34:07.358Z,100.00
2023-03-08T21:36:35.129Z,100.00
2023-03-08T21:39:01.718Z,100.00
2023-03-08T21:41:31.554Z,100.00
2023-03-08T21:43:59.263Z,100.00
2023-03-08T21:46:25.930Z,100.00
2023-03-08T21:48:54.276Z,100.00
2023-03-08T21:51:21.013Z,100.00
2023-03-08T21:53:47.817Z,100.00
2023-03-08T21:56:16.646Z,100.00
2023-03-08T21:58:44.180Z,100.00
2023-03-08T22:01:22.720Z,100.00
2023-03-08T22:03:49.929Z,100.00
2023-03-08T22:06:16.914Z,100.00
2023-03-08T22:08:43.479Z,100.00
2023-03-08T22:11:10.534Z,100.00
2023-03-08T22:13:38.547Z,100.00
2023-03-08T22:16:05.595Z,100.00
2023-03-08T22:18:32.378Z,100.00
2023-03-08T22:20:59.648Z,100.00
2023-03-08T22:23:26.911Z,100.00
2023-03-08T22:25:54.642Z,100.00
2023-03-08T22:28:21.541Z,100.00
2023-03-08T22:30:48.224Z,100.00
2023-03-08T22:33:15.011Z,100.00
2023-03-08T22:35:47.887Z,100.00
2023-03-08T22:38:15.469Z,100.00
2023-03-08T22:40:42.855Z,100.00
2023-03-08T22:43:09.967Z,100.00
2023-03-08T22:45:36.784Z,100.00
2023-03-08T22:48:04.550Z,100.00
2023-03-08T22:50:31.048Z,100.00
2023-03-08T22:52:57.649Z,100.00
2023-03-08T22:55:24.155Z,100.00
2023-03-08T22:57:50.675Z,100.00
2023-03-08T23:00:17.389Z,100.00
2023-03-08T23:02:45.529Z,100.00
2023-03-08T23:05:13.672Z,100.00
2023-03-08T23:07:40.189Z,100.00
2023-03-08T23:10:07.065Z,100.00
2023-03-08T23:12:33.577Z,100.00
2023-03-08T23:15:00.168Z,100.00
2023-03-08T23:17:26.707Z,100.00
2023-03-08T23:19:53.211Z,100.00
2023-03-08T23:22:19.752Z,100.00
2023-03-08T23:24:46.220Z,100.00
2023-03-08T23:27:12.799Z,100.00
2023-03-08T23:29:39.357Z,100.00
2023-03-08T23:32:06.477Z,100.00
2023-03-08T23:34:33.644Z,100.00
2023-03-08T23:37:03.748Z,100.00
2023-03-08T23:39:30.959Z,100.00
2023-03-08T23:41:57.508Z,100.00
2023-03-08T23:44:24.036Z,100.00
2023-03-08T23:46:50.568Z,100.00
2023-03-08T23:49:17.317Z,100.00
2023-03-08T23:51:44.002Z,100.00
2023-03-08T23:54:11.774Z,100.00
2023-03-08T23:56:40.162Z,100.00
2023-03-08T23:59:19.219Z,100.00
